Flight Track Log - Related Links

Times and Time Zones

All times are in EDT time to prevent confusion due to time zone crossing. See the SWA765 flight status page for this flight to view local times or setup timezone preferences in your user account.

Time Position Orientation Groundspeed Altitude Reporting Facility
EDT Latitude Longitude Course Direction KTS MPH feet Rate Location/Type
Thu 10:46:41 AM 41.8333 -87.7333 37° Northeast 223 257 3,500  Level Chicago TRACON
Thu 10:47:40 AM 41.7667 -87.6833 151° Southeast 257 296 6,100 2,317 Climbing Chicago TRACON
Thu 10:49:50 AM 41.6233 -87.6744 177° South 276 318 10,800 2,125 Climbing Chicago Center
Thu 10:50:52 AM 41.5406 -87.6667 176° South 295 339 12,900 2,419 Climbing Chicago Center
Thu 10:51:54 AM 41.4431 -87.6556 175° South 342 394 15,800 3,290 Climbing Chicago Center
Thu 10:52:56 AM 41.3197 -87.6425 175° South 366 421 19,700 3,097 Climbing Chicago Center
Thu 10:53:58 AM 41.2117 -87.6317 176° South 383 441 22,200 2,341 Climbing Chicago Center
Thu 10:54:59 AM 41.0975 -87.6192 175° South 405 466 24,500 2,195 Climbing Chicago Center
Thu 10:56:01 AM 40.9831 -87.6075 176° South 413 475 26,700 1,984 Climbing Chicago Center
Thu 10:57:03 AM 40.8636 -87.5950 175° South 423 487 28,600 2,129 Climbing Chicago Center
Thu 10:58:05 AM 40.7444 -87.5825 175° South 429 494 31,100 2,129 Climbing Chicago Center
Thu 10:59:07 AM 40.6292 -87.5700 175° South 422 486 33,000 1,220 Climbing Chicago Center
Thu 11:00:08 AM 40.4850 -87.5567 176° South 428 493 33,600 829 Climbing Chicago Center
Thu 11:01:10 AM 40.3597 -87.5425 175° South 441 507 34,700 677 Climbing Chicago Center
Thu 11:02:12 AM 40.2336 -87.5294 175° South 450 518 35,000 194 Climbing Chicago Center
Thu 11:03:14 AM 40.1072 -87.5186 176° South 457 526 35,100 500 Climbing Chicago Center
Thu 11:04:00 AM 39.9994 -87.5081 176° South 470 541 35,900 1,056 Climbing Indianapolis Center
Thu 11:05:02 AM 39.8661 -87.4950 176° South 481 554 37,000 532 Climbing Indianapolis Center
Thu 11:06:04 AM 39.7336 -87.4822 176° South 481 554 37,000 -484 Level Indianapolis Center
Thu 11:07:06 AM 39.5769 -87.4672 176° South 475 547 36,000 -823 Descending Indianapolis Center
Thu 11:08:08 AM 39.4467 -87.4542 176° South 474 545 35,300 -823 Descending Indianapolis Center
Thu 11:09:10 AM 39.3203 -87.4428 176° South 465 535 34,300 -919 Descending Indianapolis Center
Thu 11:10:12 AM 39.1964 -87.4294 175° South 452 520 33,400 -629 Descending Indianapolis Center
Thu 11:11:14 AM 39.0703 -87.4178 176° South 443 510 33,000 -194 Descending Indianapolis Center
Thu 11:12:16 AM 38.9489 -87.4064 176° South 437 503 33,000  Level Indianapolis Center
Thu 11:13:18 AM 38.8267 -87.3942 176° South 439 505 33,000  Level Indianapolis Center
Thu 11:14:20 AM 38.6811 -87.3806 176° South 437 503 33,000  Level Indianapolis Center
Thu 11:15:21 AM 38.5597 -87.3694 176° South 437 503 33,000  Level Indianapolis Center
Thu 11:16:23 AM 38.4386 -87.3578 176° South 438 504 33,000  Level Indianapolis Center
Thu 11:17:25 AM 38.3181 -87.3472 176° South 440 506 33,000  Level Indianapolis Center
Thu 11:18:27 AM 38.1978 -87.3356 176° South 439 505 33,000  Level Indianapolis Center
Thu 11:19:29 AM 38.0528 -87.3208 175° South 438 504 33,000 -48 Level Indianapolis Center
Thu 11:20:31 AM 37.9303 -87.3097 176° South 441 507 32,900 -1,065 Descending Indianapolis Center
Thu 11:21:33 AM 37.8083 -87.2978 176° South 438 504 30,800 -2,129 Descending Indianapolis Center
Thu 11:22:35 AM 37.6828 -87.2869 176° South 422 486 28,500 -2,168 Descending Indianapolis Center
Thu 11:23:32 AM 37.5686 -87.2803 177° South 407 468 26,500 -1,984 Descending Memphis Center
Thu 11:24:39 AM 37.4456 -87.2667 175° South 393 452 24,400 -1,591 Descending Memphis Center
Thu 11:25:44 AM 37.3347 -87.2503 173° South 396 456 23,000 -694 Descending Memphis Center
Thu 11:26:40 AM 37.2381 -87.2228 167° South 376 433 23,000 -205 Level Memphis Center
Thu 11:27:41 AM 37.1372 -87.1928 167° South 380 437 22,600 -1,537 Descending Memphis Center
Thu 11:28:41 AM 37.0283 -87.1633 168° South 389 448 19,900 -2,281 Descending Memphis Center
Thu 11:29:42 AM 36.9253 -87.1339 167° South 387 445 18,000 -1,525 Descending Memphis Center
Thu 11:30:43 AM 36.8225 -87.1042 167° South 368 423 16,800 -1,033 Descending Memphis Center
Thu 11:31:44 AM 36.7378 -87.0508 153° Southeast 370 426 15,900 -1,091 Descending Memphis Center
Thu 11:32:44 AM 36.6381 -86.9900 154° Southeast 365 420 14,600 -1,650 Descending Memphis Center
Thu 11:33:44 AM 36.5492 -86.9369 154° Southeast 358 412 12,600 -2,200 Descending Memphis Center
Thu 11:34:44 AM 36.4622 -86.8839 154° Southeast 352 405 10,200 -1,800 Descending Memphis Center
Thu 11:35:44 AM 36.3878 -86.8356 152° Southeast 329 379 9,000 -1,250 Descending Memphis Center
Thu 11:36:44 AM 36.3181 -86.7947 155° Southeast 319 367 7,700 -1,350 Descending Memphis Center
Thu 11:37:44 AM 36.2436 -86.7517 155° Southeast 299 344 6,300 -1,200 Descending Memphis Center
Thu 11:38:44 AM 36.1733 -86.7728 194° South 263 303 5,300 -750 Descending Memphis Center
Thu 11:39:44 AM 36.1117 -86.7961 197° South 246 283 4,800 -850 Descending Memphis Center
Thu 11:40:44 AM 36.0492 -86.7989 182° South 223 257 3,600 -1,000 Descending Memphis Center
Thu 11:41:44 AM 36.0408 -86.7297 98° East 160 184 2,800 -1,100 Descending Memphis Center
Thu 11:42:44 AM 36.0797 -86.7000 32° Northeast 121 139 1,400 -1,050 Descending Memphis Center
Thu 11:43:44 AM 36.1147 -86.6881 15° North 117 135 700 3,800 Descending Memphis Center
Thu 11:44:44 AM 36.1367 -86.6564 49° Northeast 117 135 9,000 8,300 Climbing Memphis Center
Thu 11:46:00 AM 36.1167 -86.6667 219° Southwest  Level FlightAware Approximate
Thu 11:53:00 AM 36.1245 -86.6782 219° Southwest  Level Estimated
Thu 11:54:00 AM 36.1245 -86.6782 219° Southwest  Level Estimated
Thu 11:55:00 AM 36.1245 -86.6782 219° Southwest  Level Estimated
Thu 11:56:00 AM 36.1245 -86.6782 219° Southwest  Level Estimated
Thu 11:57:00 AM 36.1245 -86.6782 219° Southwest  Level Estimated
Thu 11:58:00 AM 36.1245 -86.6782 219° Southwest  Level Estimated
Thu 11:59:00 AM 36.1245 -86.6782 219° Southwest  Level Estimated
Thu 12:00:00 PM 36.1245 -86.6782 219° Southwest  Level Estimated

Login

Don't have an account? Register now (free) for customized features, flight alerts, and more!